Terminal Aerodrome Forecast
Issued by NWS

Home | Current Version | Previous Version | Text Only | Print | Product List | Glossary On
Versions: 1 2 3 4 5 6 7 8 9 10 11 12 13 14 15 16 17 18
000
FTUS44 KEWX 020541
TAFSSF
TAF
KSSF 020541Z 0206/0306 13006KT P6SM SKC
     FM020700 12004KT P6SM BKN010
     FM021600 14006KT P6SM SCT040
     FM022100 13009KT P6SM VCSH SCT060 SCT250
     FM030200 14007KT P6SM FEW250=

USA.gov is the U.S. government's official web portal to all federal, state and local government web resources and services.